Time;durP1;ratioP1;P1;durP2;ratioP2;P2;SDS_P1;SDS_P2;PMS_P1;PMS_P2;Temp;Humidity;BMP_temperature;BMP_pressure;BME280_temperature;BME280_humidity;BME280_pressure;Samples;Min_cycle;Max_cycle;Signal;HPM_P1;HPM_P2
2022/04/05 00:02:13;;;;;;;0.85;0.40;;;;;;;12.46;100.00;99172.81;7392697;19;20010;-58
2022/04/05 00:04:39;;;;;;;1.00;0.68;;;;;;;12.47;100.00;99165.97;7393469;19;20014;-58
2022/04/05 00:07:05;;;;;;;3.00;1.33;;;;;;;12.45;100.00;99171.31;7390731;19;20460;-58
2022/04/05 00:09:31;;;;;;;0.73;0.32;;;;;;;12.46;100.00;99162.41;7390019;19;20022;-58
2022/04/05 00:11:58;;;;;;;0.50;0.50;;;;;;;12.52;100.00;99168.00;7394264;19;20010;-58
2022/04/05 00:14:24;;;;;;;2.97;0.70;;;;;;;12.50;100.00;99164.97;7391480;19;20333;-58
2022/04/05 00:16:50;;;;;;;0.63;0.35;;;;;;;12.49;100.00;99163.44;7392342;19;20010;-58
2022/04/05 00:19:19;;;;;;;1.95;0.93;;;;;;;12.51;100.00;99163.69;7391165;19;20355;-58
2022/04/05 00:21:45;;;;;;;1.35;0.35;;;;;;;12.51;100.00;99163.69;7392023;19;20010;-58
2022/04/05 00:24:11;;;;;;;2.50;0.93;;;;;;;12.48;100.00;99161.91;7391920;19;20014;-58
2022/04/05 00:26:38;;;;;;;13.52;1.00;;;;;;;12.47;100.00;99154.81;7391295;19;20018;-58
2022/04/05 00:29:04;;;;;;;0.38;0.38;;;;;;;12.48;100.00;99159.13;7390906;19;20014;-58
2022/04/05 00:31:30;;;;;;;0.93;0.82;;;;;;;12.53;100.00;99152.78;7391954;19;20018;-58
2022/04/05 00:33:57;;;;;;;1.30;0.80;;;;;;;12.53;100.00;99155.56;7390096;19;20019;-58
2022/04/05 00:36:23;;;;;;;2.50;1.52;;;;;;;12.55;100.00;99156.59;7391579;19;20031;-58
2022/04/05 00:38:49;;;;;;;0.88;0.88;;;;;;;12.54;100.00;99154.31;7391771;19;20039;-57
2022/04/05 00:41:15;;;;;;;2.00;0.77;;;;;;;12.52;100.00;99151.25;7391028;19;20010;-57
2022/04/05 00:43:42;;;;;;;0.80;0.80;;;;;;;12.52;100.00;99154.03;7390428;19;20015;-57
2022/04/05 00:46:08;;;;;;;0.30;0.20;;;;;;;12.48;100.00;99150.75;7391259;19;20010;-57
2022/04/05 00:48:48;;;;;;;1.10;0.95;;;;;;;12.48;100.00;99151.50;7391958;19;20760;-57
2022/04/05 00:51:17;;;;;;;2.13;1.13;;;;;;;12.51;100.00;99152.53;7392045;19;20006;-57
2022/04/05 00:53:48;;;;;;;1.38;0.88;;;;;;;12.48;100.00;99150.75;7390739;19;20066;-57
2022/04/05 00:56:14;;;;;;;;;;;;;;;12.50;100.00;99151.00;7391302;19;20474;-57
2022/04/05 00:58:46;;;;;;;3.90;1.40;;;;;;;12.48;100.00;99147.94;7392532;19;19918;-57
2022/04/05 01:01:16;;;;;;;0.35;0.25;;;;;;;12.48;100.00;99154.31;7393430;19;20024;-57
2022/04/05 01:03:48;;;;;;;4.30;0.68;;;;;;;12.51;100.00;99149.75;7389579;19;20018;-57
2022/04/05 01:06:18;;;;;;;0.90;0.73;;;;;;;12.51;100.00;99152.53;7395896;19;20013;-57
2022/04/05 01:08:46;;;;;;;0.95;0.55;;;;;;;12.50;100.00;99148.19;7391329;19;20065;-57
2022/04/05 01:11:13;;;;;;;1.48;0.68;;;;;;;12.48;100.00;99139.56;7391207;19;20532;-57
2022/04/05 01:13:39;;;;;;;1.00;0.77;;;;;;;12.44;100.00;99144.63;7391672;19;20339;-57
2022/04/05 01:16:06;;;;;;;0.30;0.30;;;;;;;12.44;100.00;99144.63;7392858;19;20758;-56
2022/04/05 01:18:33;;;;;;;1.20;0.55;;;;;;;12.44;100.00;99139.06;7392686;19;20007;-57
2022/04/05 01:20:59;;;;;;;0.52;0.52;;;;;;;12.48;100.00;99133.97;7391244;19;20038;-56
2022/04/05 01:23:26;;;;;;;1.15;0.82;;;;;;;12.47;100.00;99127.66;7390459;19;20460;-56
2022/04/05 01:25:52;;;;;;;7.18;0.65;;;;;;;12.46;100.00;99126.13;7391299;19;20033;-56
2022/04/05 01:28:22;;;;;;;0.68;0.40;;;;;;;12.49;100.00;99129.94;7396322;19;20102;-56
2022/04/05 01:30:48;;;;;;;2.10;0.57;;;;;;;12.43;100.00;99124.31;7391221;19;20014;-56
2022/04/05 01:33:14;;;;;;;1.23;0.70;;;;;;;12.42;100.00;99122.06;7395132;19;20035;-57
2022/04/05 01:35:42;;;;;;;1.35;0.65;;;;;;;12.41;100.00;99129.66;7389797;19;20074;-57
2022/04/05 01:38:09;;;;;;;0.45;0.13;;;;;;;12.44;100.00;99122.31;7389468;19;20026;-57
2022/04/05 01:40:36;;;;;;;0.35;0.35;;;;;;;12.41;100.00;99117.75;7389894;19;20098;-57
2022/04/05 01:43:02;;;;;;;0.40;0.40;;;;;;;12.41;100.00;99120.53;7391138;19;20007;-57
2022/04/05 01:45:29;;;;;;;0.98;0.70;;;;;;;12.39;100.00;99117.50;7389496;19;20014;-57
2022/04/05 01:47:55;;;;;;;0.45;0.40;;;;;;;12.35;100.00;99106.56;7388306;19;20014;-57
2022/04/05 01:50:21;;;;;;;0.50;0.35;;;;;;;12.31;100.00;99119.25;7389862;19;20086;-57
2022/04/05 01:52:48;;;;;;;1.40;0.68;;;;;;;12.28;100.00;99117.47;7391772;19;20367;-57
2022/04/05 01:55:15;;;;;;;0.68;0.45;;;;;;;12.24;100.00;99126.06;7386381;19;20051;-57
2022/04/05 01:57:42;;;;;;;0.52;0.40;;;;;;;12.22;100.00;99111.88;7389662;19;20015;-57
2022/04/05 02:00:14;;;;;;;0.73;0.45;;;;;;;12.18;100.00;99114.91;7387353;19;20015;-57
2022/04/05 02:02:44;;;;;;;0.77;0.60;;;;;;;12.17;100.00;99107.78;7389103;19;20006;-57
2022/04/05 02:05:10;;;;;;;8.80;1.20;;;;;;;12.15;100.00;99107.53;7389723;19;20025;-57
2022/04/05 02:07:37;;;;;;;3.55;0.63;;;;;;;12.13;100.00;99104.50;7384642;19;20011;-57
2022/04/05 02:10:05;;;;;;;2.50;1.27;;;;;;;12.11;100.00;99106.25;7387586;19;20363;-57
2022/04/05 02:12:32;;;;;;;1.48;0.55;;;;;;;12.07;100.00;99117.69;7390077;19;20019;-57
2022/04/05 02:15:31;;;;;;;0.73;0.70;;;;;;;12.04;100.00;99101.19;7387116;19;20014;-57
2022/04/05 02:18:06;;;;;;;0.68;0.68;;;;;;;12.07;100.00;99102.94;7385698;19;20027;-57
2022/04/05 02:20:33;;;;;;;0.40;0.40;;;;;;;12.05;100.00;99103.47;7388091;19;20056;-57
2022/04/05 02:23:01;;;;;;;1.48;0.70;;;;;;;12.12;100.00;99110.59;7389633;19;20018;-57
2022/04/05 02:25:44;;;;;;;0.88;0.55;;;;;;;12.12;100.00;99102.22;7386190;19;20021;-57
2022/04/05 02:28:12;;;;;;;0.45;0.45;;;;;;;12.12;100.00;99097.41;7390739;19;20015;-57
2022/04/05 02:30:46;;;;;;;0.95;0.40;;;;;;;12.16;100.00;99108.31;7387137;19;20027;-57
2022/04/05 02:33:14;;;;;;;3.15;0.75;;;;;;;12.15;100.00;99106.75;7390890;19;20006;-57
2022/04/05 02:35:40;;;;;;;19.27;0.95;;;;;;;12.11;100.00;99100.66;7386279;19;20037;-57
2022/04/05 02:38:07;;;;;;;0.63;0.40;;;;;;;12.10;100.00;99099.94;7386087;19;20355;-57
2022/04/05 02:40:37;;;;;;;1.35;0.30;;;;;;;12.10;100.00;99099.94;7386533;19;20425;-57
2022/04/05 02:43:05;;;;;;;2.17;1.17;;;;;;;12.13;100.00;99096.13;7388745;19;20047;-57
2022/04/05 02:45:32;;;;;;;0.47;0.40;;;;;;;12.12;100.00;99086.22;7386905;19;20014;-57
2022/04/05 02:47:58;;;;;;;0.28;0.28;;;;;;;12.09;100.00;99092.81;7386855;19;20023;-57
2022/04/05 02:50:26;;;;;;;2.88;1.17;;;;;;;12.10;100.00;99102.72;7386862;19;20014;-57
2022/04/05 02:52:53;;;;;;;0.93;0.30;;;;;;;12.09;100.00;99092.03;7392084;19;20014;-57
2022/04/05 02:55:21;;;;;;;1.80;1.10;;;;;;;12.07;100.00;99089.75;7384732;19;20435;-58
2022/04/05 02:57:49;;;;;;;2.50;0.40;;;;;;;12.06;100.00;99093.81;7388963;19;20015;-57
2022/04/05 03:00:21;;;;;;;1.40;0.88;;;;;;;12.01;100.00;99091.78;7389843;19;20014;-57
2022/04/05 03:02:49;;;;;;;0.77;0.60;;;;;;;12.02;100.00;99093.28;7394433;19;20015;-57
2022/04/05 03:05:19;;;;;;;0.25;0.15;;;;;;;11.99;100.00;99088.75;7396471;19;20465;-57
2022/04/05 03:07:46;;;;;;;0.70;0.50;;;;;;;12.00;100.00;99084.66;7393019;19;20094;-57
2022/04/05 03:10:14;;;;;;;0.63;0.63;;;;;;;12.00;100.00;99084.66;7393433;19;20010;-57
2022/04/05 03:12:43;;;;;;;1.13;0.73;;;;;;;12.01;100.00;99089.00;7397065;19;20023;-57
2022/04/05 03:15:11;;;;;;;0.20;0.20;;;;;;;11.99;100.00;99088.75;7391368;19;20007;-57
2022/04/05 03:17:43;;;;;;;0.35;0.25;;;;;;;11.99;100.00;99085.94;7394276;19;20030;-57
2022/04/05 03:20:14;;;;;;;0.45;0.45;;;;;;;11.97;100.00;99082.91;7392462;19;20011;-57
2022/04/05 03:22:46;;;;;;;0.52;0.52;;;;;;;11.95;100.00;99076.28;7394487;19;20454;-57
2022/04/05 03:25:12;;;;;;;0.45;0.40;;;;;;;11.95;100.00;99077.03;7394666;19;20038;-57
2022/04/05 03:27:41;;;;;;;0.95;0.40;;;;;;;11.96;100.00;99078.56;7395391;19;20018;-57
2022/04/05 03:30:11;;;;;;;2.15;0.75;;;;;;;11.95;100.00;99079.09;7392946;19;20105;-57
2022/04/05 03:32:37;;;;;;;0.73;0.73;;;;;;;11.92;100.00;99075.28;7395032;19;20082;-57
2022/04/05 03:35:05;;;;;;;0.77;0.30;;;;;;;11.91;100.00;99073.72;7393180;19;20467;-56
2022/04/05 03:37:31;;;;;;;0.98;0.22;;;;;;;11.95;100.00;99071.47;7391813;19;20014;-57
2022/04/05 03:39:59;;;;;;;0.30;0.20;;;;;;;11.93;100.00;99071.19;7392216;19;20015;-57
2022/04/05 03:42:26;;;;;;;0.17;0.17;;;;;;;11.91;100.00;99065.38;7390622;19;20010;-57
2022/04/05 03:44:52;;;;;;;0.35;0.30;;;;;;;11.91;100.00;99073.72;7393542;19;20035;-57
2022/04/05 03:47:18;;;;;;;1.25;0.38;;;;;;;11.90;100.00;99068.66;7393585;19;20021;-57
2022/04/05 03:49:46;;;;;;;1.17;0.95;;;;;;;11.88;100.00;99069.19;7392256;19;20102;-56
2022/04/05 03:52:13;;;;;;;0.35;0.35;;;;;;;11.89;100.00;99065.09;7394335;19;20376;-57
2022/04/05 03:54:39;;;;;;;1.13;0.40;;;;;;;11.90;100.00;99060.28;7390367;19;20062;-57
2022/04/05 03:57:10;;;;;;;2.85;0.75;;;;;;;11.89;100.00;99061.56;7394177;19;20463;-56
2022/04/05 03:59:36;;;;;;;1.08;0.80;;;;;;;11.87;100.00;99052.91;7392600;19;20014;-56
2022/04/05 04:02:03;;;;;;;0.65;0.55;;;;;;;11.85;100.00;99055.47;7390023;19;20481;-56
2022/04/05 04:04:30;;;;;;;1.85;0.73;;;;;;;11.87;100.00;99059.28;7393232;19;20098;-56
2022/04/05 04:06:57;;;;;;;0.20;0.10;;;;;;;11.85;100.00;99056.22;7393786;19;20025;-56
2022/04/05 04:09:24;;;;;;;0.20;0.20;;;;;;;11.82;100.00;99057.25;7392102;19;20335;-57
2022/04/05 04:11:52;;;;;;;0.50;0.40;;;;;;;11.78;100.00;99048.34;7391799;19;20011;-57
2022/04/05 04:14:19;;;;;;;0.10;0.10;;;;;;;11.76;100.00;99053.66;7390082;19;20045;-57
2022/04/05 04:16:48;;;;;;;0.30;0.30;;;;;;;11.76;100.00;99061.28;7390811;19;20412;-57
2022/04/05 04:19:14;;;;;;;0.30;0.30;;;;;;;11.81;100.00;99049.38;7390512;19;20412;-57
2022/04/05 04:21:41;;;;;;;0.20;0.20;;;;;;;11.74;100.00;99045.03;7391788;19;20018;-57
2022/04/05 04:24:07;;;;;;;0.30;0.30;;;;;;;11.75;100.00;99051.38;7391273;19;20659;-57
2022/04/05 04:26:35;;;;;;;0.22;0.22;;;;;;;11.72;100.00;99049.59;7390835;19;20013;-57
2022/04/05 04:29:04;;;;;;;0.32;0.30;;;;;;;11.73;100.00;99043.53;7391605;19;20537;-57
2022/04/05 04:31:31;;;;;;;5.50;0.82;;;;;;;11.72;100.00;99053.16;7391309;19;20477;-57
2022/04/05 04:33:57;;;;;;;0.75;0.30;;;;;;;11.70;100.00;99038.94;7391863;19;20017;-57
2022/04/05 04:36:25;;;;;;;0.20;0.20;;;;;;;11.72;100.00;99044.00;7393206;19;20475;-57
2022/04/05 04:38:52;;;;;;;0.20;0.20;;;;;;;11.74;100.00;99044.25;7392577;19;20019;-57
2022/04/05 04:41:21;;;;;;;0.38;0.38;;;;;;;11.75;100.00;99041.00;7392816;19;20461;-57
2022/04/05 04:43:47;;;;;;;0.30;0.30;;;;;;;11.72;100.00;99036.41;7391862;19;20106;-57
2022/04/05 04:46:14;;;;;;;0.38;0.28;;;;;;;11.67;100.00;99048.34;7392757;19;20041;-57
2022/04/05 04:48:40;;;;;;;2.33;0.60;;;;;;;11.67;100.00;99050.34;7391851;19;20754;-57
2022/04/05 04:51:06;;;;;;;0.90;0.90;;;;;;;11.66;100.00;99054.38;7390681;19;20353;-57
2022/04/05 04:53:32;;;;;;;0.50;0.40;;;;;;;11.70;100.00;99044.53;7391654;19;20450;-57
2022/04/05 04:55:58;;;;;;;0.55;0.52;;;;;;;11.72;100.00;99047.56;7391216;19;20013;-57
2022/04/05 04:58:25;;;;;;;0.25;0.25;;;;;;;11.71;100.00;99046.06;7396274;19;20025;-57
2022/04/05 05:00:51;;;;;;;0.15;0.15;;;;;;;11.66;100.00;99041.19;7391529;19;20496;-57
2022/04/05 05:03:18;;;;;;;0.55;0.55;;;;;;;11.66;100.00;99038.41;7389532;19;20390;-57
2022/04/05 05:05:45;;;;;;;0.68;0.45;;;;;;;11.66;100.00;99046.00;7394908;19;20023;-57
2022/04/05 05:08:11;;;;;;;0.85;0.55;;;;;;;11.62;100.00;99042.69;7391489;19;20384;-57
2022/04/05 05:10:37;;;;;;;3.38;0.98;;;;;;;11.64;100.00;99051.31;7390487;19;20059;-57
2022/04/05 05:13:03;;;;;;;2.42;1.05;;;;;;;11.63;100.00;99044.22;7395892;19;20006;-57
2022/04/05 05:15:30;;;;;;;1.00;0.47;;;;;;;11.57;100.00;99052.56;7392239;19;20019;-57
2022/04/05 05:17:56;;;;;;;5.38;1.13;;;;;;;11.60;100.00;99057.16;7392458;19;20351;-57
2022/04/05 05:20:22;;;;;;;0.65;0.52;;;;;;;11.60;100.00;99054.34;7393228;19;20015;-57
2022/04/05 05:22:48;;;;;;;1.20;0.35;;;;;;;11.57;100.00;99060.16;7392413;19;20003;-57
2022/04/05 05:25:14;;;;;;;16.15;1.05;;;;;;;11.58;100.00;99054.09;7391715;19;20015;-57
2022/04/05 05:27:41;;;;;;;2.75;0.70;;;;;;;11.57;100.00;99055.34;7394065;19;20016;-57
2022/04/05 05:30:09;;;;;;;0.90;0.40;;;;;;;11.56;100.00;99051.06;7391018;19;20466;-57
2022/04/05 05:32:49;;;;;;;0.50;0.50;;;;;;;11.53;100.00;99052.03;7387755;19;20420;-57
2022/04/05 05:35:17;;;;;;;0.60;0.20;;;;;;;11.51;100.00;99054.56;7390432;19;20038;-57
2022/04/05 05:37:44;;;;;;;4.82;0.68;;;;;;;11.54;100.00;99052.81;7389433;19;20007;-57
2022/04/05 05:40:12;;;;;;;2.55;0.85;;;;;;;11.50;100.00;99047.47;7390255;19;20007;-57
2022/04/05 05:42:57;;;;;;;1.08;0.98;;;;;;;11.53;100.00;99046.47;7392445;19;20018;-57
2022/04/05 05:45:28;;;;;;;0.68;0.68;;;;;;;11.51;100.00;99065.72;7386752;19;20014;-57
2022/04/05 05:47:55;;;;;;;0.60;0.50;;;;;;;11.55;100.00;99059.91;7388469;19;20047;-57
2022/04/05 05:50:22;;;;;;;0.43;0.35;;;;;;;11.56;100.00;99062.19;7387213;19;20014;-57
2022/04/05 05:52:48;;;;;;;0.47;0.43;;;;;;;11.56;100.00;99053.84;7390499;19;20015;-57
2022/04/05 05:55:18;;;;;;;0.57;0.40;;;;;;;11.59;100.00;99055.59;7388443;19;20010;-57
2022/04/05 05:57:44;;;;;;;1.48;1.38;;;;;;;11.57;100.00;99069.28;7391550;19;20018;-58
2022/04/05 06:00:20;;;;;;;0.77;0.77;;;;;;;11.55;100.00;99066.25;7388153;19;20014;-58
2022/04/05 06:02:49;;;;;;;0.40;0.40;;;;;;;11.54;100.00;99070.31;7388880;19;20368;-61
2022/04/05 06:05:15;;;;;;;3.03;0.70;;;;;;;11.52;100.00;99067.22;7391993;19;20015;-61
2022/04/05 06:07:42;;;;;;;0.38;0.38;;;;;;;11.49;100.00;99068.25;7388366;19;20011;-61
2022/04/05 06:10:10;;;;;;;0.80;0.77;;;;;;;11.49;100.00;99073.06;7389159;19;20003;-61
2022/04/05 06:12:38;;;;;;;2.30;0.70;;;;;;;11.44;100.00;99075.31;7391724;19;20094;-61
2022/04/05 06:15:08;;;;;;;7.35;0.85;;;;;;;11.41;100.00;99067.22;7388418;19;20010;-61
2022/04/05 06:17:40;;;;;;;0.85;0.82;;;;;;;11.42;100.00;99077.09;7389521;19;20467;-61
2022/04/05 06:20:07;;;;;;;1.30;0.40;;;;;;;11.39;100.00;99072.53;7389162;19;20038;-60
2022/04/05 06:22:47;;;;;;;1.23;1.00;;;;;;;11.35;100.00;99074.75;7391268;19;20021;-60
2022/04/05 06:25:29;;;;;;;1.65;0.88;;;;;;;11.35;100.00;99066.41;7388065;19;20015;-61
2022/04/05 06:28:01;;;;;;;;;;;;;;;11.35;100.00;99069.19;7389957;19;20011;-60
2022/04/05 06:30:27;;;;;;;6.60;1.25;;;;;;;11.37;100.00;99080.59;7392370;19;19915;-60
2022/04/05 06:33:23;;;;;;;9.60;2.63;;;;;;;11.36;100.00;99063.13;7391688;19;20041;-61
2022/04/05 06:35:59;;;;;;;10.07;2.45;;;;;;;11.35;100.00;99075.53;7397340;19;20369;-60
2022/04/05 06:38:28;;;;;;;16.45;4.25;;;;;;;11.31;100.00;99080.59;7397192;19;20045;-60
2022/04/05 06:40:55;;;;;;;17.45;3.25;;;;;;;11.31;100.00;99079.81;7395268;19;20018;-60
2022/04/05 06:43:23;;;;;;;3.47;1.10;;;;;;;11.32;100.00;99075.78;7391189;19;20482;-60
2022/04/05 06:45:51;;;;;;;8.02;2.03;;;;;;;11.32;100.00;99075.78;7394660;19;20011;-60
2022/04/05 06:48:18;;;;;;;1.02;0.82;;;;;;;11.30;100.00;99086.66;7394924;19;20353;-61
2022/04/05 06:50:46;;;;;;;15.63;2.95;;;;;;;11.32;100.00;99075.78;7394743;19;20010;-60
2022/04/05 06:53:13;;;;;;;10.10;2.00;;;;;;;11.30;100.00;99072.72;7399955;19;20018;-60
2022/04/05 06:55:39;;;;;;;5.90;3.10;;;;;;;11.30;100.00;99089.47;7395310;19;20014;-61
2022/04/05 06:58:06;;;;;;;5.85;1.25;;;;;;;11.25;100.00;99081.81;7398275;19;20014;-60
2022/04/05 07:00:34;;;;;;;6.85;1.83;;;;;;;11.23;100.00;99075.97;7395549;19;20011;-61
2022/04/05 07:03:01;;;;;;;4.97;1.17;;;;;;;11.22;100.00;99078.00;7395782;19;20046;-61
2022/04/05 07:05:28;;;;;;;5.57;1.35;;;;;;;11.25;100.00;99081.81;7396161;19;20018;-60
2022/04/05 07:07:55;;;;;;;3.60;1.92;;;;;;;11.28;100.00;99080.84;7393875;19;20024;-61
2022/04/05 07:10:21;;;;;;;2.10;0.80;;;;;;;11.24;100.00;99069.16;7395647;19;20030;-60
2022/04/05 07:12:48;;;;;;;5.10;1.42;;;;;;;11.27;100.00;99073.72;7396429;19;20011;-60
2022/04/05 07:15:15;;;;;;;0.65;0.50;;;;;;;11.28;100.00;99075.25;7394236;19;20328;-60
2022/04/05 07:17:43;;;;;;;3.00;0.90;;;;;;;11.30;100.00;99073.47;7392067;19;20044;-60
2022/04/05 07:20:10;;;;;;;1.77;1.30;;;;;;;11.29;100.00;99077.53;7392881;19;20014;-60
2022/04/05 07:22:44;;;;;;;0.40;0.40;;;;;;;11.30;100.00;99070.69;7396932;19;20010;-60
2022/04/05 07:25:10;;;;;;;2.88;0.90;;;;;;;11.33;100.00;99071.72;7394582;19;20018;-60
2022/04/05 07:27:36;;;;;;;2.20;0.82;;;;;;;11.30;100.00;99073.47;7397139;19;20039;-59
2022/04/05 07:30:03;;;;;;;0.95;0.68;;;;;;;11.26;100.00;99080.56;7394578;19;20014;-59
2022/04/05 07:32:38;;;;;;;1.90;0.70;;;;;;;11.26;100.00;99069.41;7396452;19;20014;-59
2022/04/05 07:35:05;;;;;;;0.77;0.52;;;;;;;11.27;100.00;99068.16;7394074;19;20006;-59
2022/04/05 07:37:31;;;;;;;1.55;0.52;;;;;;;11.27;100.00;99073.72;7393339;19;20094;-60
2022/04/05 07:40:03;;;;;;;0.60;0.40;;;;;;;11.26;100.00;99066.63;7393588;19;20007;-60
2022/04/05 07:42:29;;;;;;;1.40;0.85;;;;;;;11.32;100.00;99070.97;7395410;19;20042;-60
2022/04/05 07:44:55;;;;;;;2.60;1.33;;;;;;;11.32;100.00;99070.97;7390028;19;20011;-60
2022/04/05 07:47:22;;;;;;;0.73;0.73;;;;;;;11.39;100.00;99061.38;7391520;19;20013;-61
2022/04/05 07:49:48;;;;;;;0.50;0.38;;;;;;;11.38;100.00;99054.25;7393274;19;20493;-60
2022/04/05 07:52:15;;;;;;;0.17;0.15;;;;;;;11.37;100.00;99061.09;7396656;19;20018;-61
2022/04/05 07:54:42;;;;;;;0.22;0.20;;;;;;;11.25;100.00;99067.88;7393761;19;20028;-59
2022/04/05 07:57:10;;;;;;;1.63;0.98;;;;;;;11.20;100.00;99074.94;7395218;19;20016;-59
2022/04/05 07:59:37;;;;;;;0.93;0.68;;;;;;;11.20;100.00;99071.41;7393226;19;20010;-59
2022/04/05 08:02:04;;;;;;;0.30;0.30;;;;;;;11.20;100.00;99063.03;7391922;19;20043;-59
2022/04/05 08:04:30;;;;;;;3.85;0.98;;;;;;;11.21;100.00;99064.56;7394688;19;20772;-59
2022/04/05 08:06:56;;;;;;;0.52;0.40;;;;;;;11.25;100.00;99067.88;7395259;19;20031;-58
2022/04/05 08:09:22;;;;;;;0.32;0.30;;;;;;;11.27;100.00;99074.50;7396433;19;20007;-58
2022/04/05 08:11:49;;;;;;;1.20;0.60;;;;;;;11.25;100.00;99076.25;7394533;19;20613;-58
2022/04/05 08:14:15;;;;;;;3.13;1.13;;;;;;;11.28;100.00;99070.44;7391046;19;20085;-58
2022/04/05 08:16:42;;;;;;;1.25;1.15;;;;;;;11.36;100.00;99071.50;7393113;19;20438;-58
2022/04/05 08:19:09;;;;;;;4.90;0.85;;;;;;;11.40;100.00;99071.25;7390877;19;20011;-58
2022/04/05 08:21:36;;;;;;;6.53;0.95;;;;;;;11.42;100.00;99074.31;7392741;19;20353;-58
2022/04/05 08:24:02;;;;;;;17.65;3.40;;;;;;;11.47;100.00;99070.78;7391607;19;20070;-58
2022/04/05 08:26:29;;;;;;;8.95;2.42;;;;;;;11.49;100.00;99079.41;7393777;19;20011;-58
2022/04/05 08:28:56;;;;;;;0.93;0.93;;;;;;;11.52;100.00;99074.84;7392846;19;20035;-58
2022/04/05 08:31:25;;;;;;;2.72;1.33;;;;;;;11.48;100.00;99089.03;7392685;19;20500;-58
2022/04/05 08:33:52;;;;;;;3.88;1.95;;;;;;;11.51;100.00;99082.44;7392040;19;20014;-58
2022/04/05 08:36:18;;;;;;;5.85;1.13;;;;;;;11.53;100.00;99079.16;7392643;19;20029;-58
2022/04/05 08:38:44;;;;;;;2.30;1.42;;;;;;;11.55;100.00;99080.19;7391303;19;20027;-58
2022/04/05 08:41:12;;;;;;;1.92;0.85;;;;;;;11.57;100.00;99077.66;7392516;19;20010;-58
2022/04/05 08:43:42;;;;;;;3.85;0.85;;;;;;;11.58;100.00;99079.19;7389595;19;20011;-58
2022/04/05 08:46:10;;;;;;;5.17;1.67;;;;;;;11.66;100.00;99079.47;7391685;19;20017;-58
2022/04/05 08:48:37;;;;;;;6.88;1.73;;;;;;;11.74;100.00;99078.50;7390940;19;20014;-58
2022/04/05 08:51:05;;;;;;;3.55;1.10;;;;;;;11.82;100.00;99084.38;7390139;19;20013;-58
2022/04/05 08:53:33;;;;;;;7.93;1.88;;;;;;;11.81;100.00;99083.59;7390978;19;20022;-58
2022/04/05 08:56:01;;;;;;;8.13;1.67;;;;;;;11.82;100.00;99078.78;7389015;19;20010;-58
2022/04/05 08:58:27;;;;;;;2.83;0.85;;;;;;;11.84;100.00;99074.25;7393155;19;20408;-58
2022/04/05 09:00:53;;;;;;;4.93;1.08;;;;;;;11.88;100.00;99082.34;7390017;19;20018;-58
2022/04/05 09:03:20;;;;;;;4.25;1.33;;;;;;;11.96;100.00;99077.81;7393691;19;20010;-58
2022/04/05 09:05:47;;;;;;;3.05;1.00;;;;;;;12.00;100.00;99073.50;7394897;19;20355;-58
2022/04/05 09:08:23;;;;;;;0.95;0.60;;;;;;;11.99;100.00;99080.38;7390804;19;20019;-58
2022/04/05 09:11:02;;;;;;;1.13;0.90;;;;;;;12.15;100.00;99074.03;7390446;19;20011;-58
2022/04/05 09:13:28;;;;;;;2.20;0.57;;;;;;;12.33;100.00;99072.03;7390257;19;20082;-58
2022/04/05 09:15:59;;;;;;;0.73;0.60;;;;;;;12.42;100.00;99069.00;7390857;19;20038;-58
2022/04/05 09:18:38;;;;;;;1.58;0.47;;;;;;;12.46;100.00;99063.91;7390748;19;20103;-58
2022/04/05 09:21:07;;;;;;;0.73;0.73;;;;;;;12.60;100.00;99057.31;7391460;19;20034;-58
2022/04/05 09:23:38;;;;;;;1.38;0.88;;;;;;;12.67;100.00;99062.38;7390173;19;20010;-58
2022/04/05 09:26:07;;;;;;;1.35;1.23;;;;;;;12.71;100.00;99062.91;7390830;19;20022;-58
2022/04/05 09:28:41;;;;;;;2.05;0.98;;;;;;;12.68;100.00;99066.72;7390528;19;20025;-58
2022/04/05 09:31:12;;;;;;;2.05;1.10;;;;;;;12.71;100.00;99069.22;7389133;19;20017;-58
2022/04/05 09:34:06;;;;;;;0.77;0.77;;;;;;;12.73;100.00;99063.16;7387682;19;20014;-58
2022/04/05 09:36:35;;;;;;;0.88;0.82;;;;;;;12.73;100.00;99065.94;7390272;19;20014;-58
2022/04/05 09:39:17;;;;;;;1.55;0.65;;;;;;;12.75;100.00;99077.38;7390114;19;20021;-58
2022/04/05 09:42:00;;;;;;;0.55;0.55;;;;;;;12.68;100.00;99072.28;7391147;19;20011;-58
2022/04/05 09:44:34;;;;;;;0.25;0.20;;;;;;;12.61;100.00;99067.97;7389931;19;20017;-57
2022/04/05 09:47:05;;;;;;;7.22;0.73;;;;;;;12.59;100.00;99061.38;7388874;19;20034;-57
2022/04/05 09:49:34;;;;;;;5.15;0.90;;;;;;;12.56;100.00;99056.81;7389581;19;20014;-58
2022/04/05 09:52:00;;;;;;;6.70;1.13;;;;;;;12.52;100.00;99068.22;7388761;19;20015;-58
2022/04/05 09:54:28;;;;;;;1.85;0.73;;;;;;;12.57;100.00;99069.50;7390374;19;20018;-57
2022/04/05 09:57:03;;;;;;;15.75;1.45;;;;;;;12.65;100.00;99067.72;7390902;19;20011;-57
2022/04/05 09:59:37;;;;;;;5.07;1.00;;;;;;;12.72;100.00;99067.97;7387988;19;20018;-57
2022/04/05 10:02:17;;;;;;;0.50;0.50;;;;;;;12.73;100.00;99063.16;7390407;19;20032;-57
2022/04/05 10:05:09;;;;;;;1.57;1.03;;;;;;;12.83;100.00;99067.97;7391056;19;20588;-57
2022/04/05 10:07:36;;;;;;;;;;;;;;;12.90;100.00;99063.91;7389954;19;20018;-57
2022/04/05 10:10:06;;;;;;;0.45;0.30;;;;;;;12.89;100.00;99067.94;7393540;19;19926;-57
2022/04/05 10:12:32;;;;;;;0.10;0.10;;;;;;;12.93;100.00;99068.44;7399256;19;20097;-57
2022/04/05 10:14:59;;;;;;;0.40;0.40;;;;;;;12.96;100.00;99064.63;7395536;19;20085;-57
2022/04/05 10:17:28;;;;;;;1.13;1.02;;;;;;;13.03;100.00;99072.50;7396263;19;20102;-57
2022/04/05 10:19:59;;;;;;;0.95;0.95;;;;;;;13.08;100.00;99079.41;7395017;19;20034;-57
2022/04/05 10:22:26;;;;;;;0.68;0.50;;;;;;;13.12;100.00;99068.72;7398054;19;20021;-57
2022/04/05 10:24:54;;;;;;;2.00;1.10;;;;;;;13.12;100.00;99072.28;7394788;19;20018;-57
2022/04/05 10:27:22;;;;;;;3.35;0.85;;;;;;;13.14;100.00;99075.31;7398419;19;20014;-57
2022/04/05 10:29:58;;;;;;;3.40;0.80;;;;;;;13.18;100.00;99073.00;7395448;19;20082;-57
2022/04/05 10:32:36;;;;;;;0.70;0.70;;;;;;;13.27;100.00;99069.94;7398256;19;20371;-57
2022/04/05 10:35:06;;;;;;;3.22;1.48;;;;;;;13.35;100.00;99054.16;7396302;19;20011;-57
2022/04/05 10:37:35;;;;;;;2.28;1.33;;;;;;;13.37;100.00;99062.78;7396398;19;20376;-57
2022/04/05 10:40:01;;;;;;;5.15;0.73;;;;;;;13.36;100.00;99055.66;7395449;19;20014;-57
2022/04/05 10:42:46;;;;;;;8.45;1.17;;;;;;;13.37;100.00;99054.41;7397274;19;20015;-57
2022/04/05 10:45:19;;;;;;;1.75;1.00;;;;;;;13.39;100.00;99057.44;7394849;19;20037;-57
2022/04/05 10:48:18;;;;;;;0.43;0.28;;;;;;;13.38;100.00;99053.09;7394614;19;20006;-57
2022/04/05 10:50:45;;;;;;;0.50;0.43;;;;;;;13.32;100.00;99055.16;7395876;19;20343;-57
2022/04/05 10:53:29;;;;;;;0.17;0.15;;;;;;;13.32;100.00;99052.38;7400828;19;20027;-58
2022/04/05 10:56:06;;;;;;;0.85;0.47;;;;;;;13.38;100.00;99047.50;7395704;19;20002;-57
2022/04/05 10:58:35;;;;;;;7.95;1.98;;;;;;;13.44;100.00;99053.88;7394404;19;20101;-58
2022/04/05 11:01:21;;;;;;;0.90;0.57;;;;;;;13.55;100.00;99045.44;7393902;19;20011;-58
2022/04/05 11:04:09;;;;;;;1.00;0.90;;;;;;;13.94;100.00;99036.81;7390996;19;20015;-58
2022/04/05 11:07:01;;;;;;;2.67;1.08;;;;;;;14.30;100.00;99026.41;7395343;19;20011;-58
2022/04/05 11:09:33;;;;;;;0.73;0.73;;;;;;;14.52;100.00;99034.63;7394655;19;20551;-58
2022/04/05 11:12:05;;;;;;;0.70;0.70;;;;;;;14.70;100.00;99028.38;7398116;19;20019;-58
2022/04/05 11:14:38;;;;;;;0.47;0.40;;;;;;;14.88;100.00;99033.28;7395413;19;20524;-57
2022/04/05 11:17:07;;;;;;;1.85;0.88;;;;;;;15.02;100.00;99022.94;7393245;19;20034;-58
2022/04/05 11:19:35;;;;;;;20.20;1.02;;;;;;;15.19;100.00;99018.66;7394517;19;20080;-58
2022/04/05 11:22:24;;;;;;;4.68;0.57;;;;;;;15.11;100.00;99012.16;7394288;19;20015;-58
2022/04/05 11:25:04;;;;;;;0.35;0.35;;;;;;;15.11;100.00;99014.94;7395096;19;20447;-58
2022/04/05 11:27:48;;;;;;;1.27;0.50;;;;;;;15.05;100.00;99017.03;7395203;19;20031;-57
2022/04/05 11:30:23;;;;;;;10.10;0.90;;;;;;;14.96;100.00;99011.81;7395190;19;20070;-56
2022/04/05 11:33:20;;;;;;;0.20;0.20;;;;;;;14.78;100.00;99015.28;7398136;19;20011;-57
2022/04/05 11:35:47;;;;;;;0.55;0.38;;;;;;;14.51;100.00;99010.69;7394950;19;20010;-57
2022/04/05 11:38:16;;;;;;;8.07;1.65;;;;;;;14.23;100.00;99010.13;7393803;19;20049;-56